Time;durP1;ratioP1;P1;durP2;ratioP2;P2;SDS_P1;SDS_P2;PMS_P1;PMS_P2;Temp;Humidity;BMP_temperature;BMP_pressure;BME280_temperature;BME280_humidity;BME280_pressure;Samples;Min_cycle;Max_cycle;Signal;HPM_P1;HPM_P2
2022/09/07 00:01:32;;;;;;;9.45;6.50;;;19.50;99.90;;;;;;5069810;28;20040;-78
2022/09/07 00:03:57;;;;;;;13.02;7.28;;;19.50;99.90;;;;;;5070446;28;20040;-79
2022/09/07 00:06:23;;;;;;;8.57;6.63;;;19.50;99.90;;;;;;5087128;28;20052;-79
2022/09/07 00:08:49;;;;;;;9.45;6.40;;;19.50;99.90;;;;;;5096687;28;20028;-79
2022/09/07 00:11:17;;;;;;;10.05;7.35;;;19.50;99.90;;;;;;5096369;28;20032;-79
2022/09/07 00:13:46;;;;;;;12.00;7.13;;;19.40;99.90;;;;;;5096176;28;20028;-79
2022/09/07 00:16:20;;;;;;;10.85;6.80;;;19.50;99.90;;;;;;5078479;28;20029;-80
2022/09/07 00:18:46;;;;;;;12.13;6.40;;;19.50;99.90;;;;;;5075427;28;20532;-79
2022/09/07 00:21:13;;;;;;;8.98;7.15;;;19.50;99.90;;;;;;5069584;28;20037;-79
2022/09/07 00:23:39;;;;;;;10.45;6.78;;;19.50;99.90;;;;;;5052818;28;20052;-80
2022/09/07 00:26:13;;;;;;;16.08;7.53;;;19.50;99.90;;;;;;5069415;28;20488;-80
2022/09/07 00:28:39;;;;;;;11.00;7.07;;;19.50;99.90;;;;;;5053958;28;20037;-80
2022/09/07 00:31:10;;;;;;;13.48;7.68;;;19.40;99.90;;;;;;5072881;28;20079;-79
2022/09/07 00:33:36;;;;;;;9.13;7.80;;;19.30;99.90;;;;;;5072484;28;20044;-78
2022/09/07 00:36:02;;;;;;;9.85;7.65;;;19.20;99.90;;;;;;5072740;28;20047;-78
2022/09/07 00:38:27;;;;;;;9.95;8.05;;;19.10;99.90;;;;;;5073022;28;20048;-77
2022/09/07 00:40:53;;;;;;;16.00;8.60;;;19.00;99.90;;;;;;5072437;28;20040;-78
2022/09/07 00:43:34;;;;;;;16.45;9.02;;;18.90;99.90;;;;;;5055671;28;20491;-78
2022/09/07 00:46:01;;;;;;;15.07;8.90;;;18.80;99.90;;;;;;5072949;28;20454;-78
2022/09/07 00:48:49;;;;;;;12.48;9.93;;;18.80;99.90;;;;;;5056249;28;20040;-78
2022/09/07 00:51:22;;;;;;;22.33;14.25;;;18.70;99.90;;;;;;5072205;28;20040;-79
2022/09/07 00:53:54;;;;;;;23.30;15.00;;;18.70;99.90;;;;;;5055654;28;20047;-80
2022/09/07 00:56:23;;;;;;;21.75;14.23;;;18.60;99.90;;;;;;5072382;28;20048;-80
2022/09/07 00:58:49;;;;;;;24.92;13.65;;;18.50;99.90;;;;;;5056543;28;20056;-80
2022/09/07 01:01:17;;;;;;;23.05;15.30;;;18.60;99.90;;;;;;5072301;28;20040;-80
2022/09/07 01:03:48;;;;;;;19.50;14.88;;;18.50;99.90;;;;;;5055952;28;20067;-80
2022/09/07 01:06:46;;;;;;;23.27;15.35;;;18.50;99.90;;;;;;5056159;28;20500;-80
2022/09/07 01:09:19;;;;;;;20.52;14.10;;;18.50;99.90;;;;;;5059441;28;20063;-80
2022/09/07 01:11:49;;;;;;;21.05;15.00;;;18.50;99.90;;;;;;5072892;28;20059;-80
2022/09/07 01:14:21;;;;;;;23.40;15.45;;;18.40;99.90;;;;;;5074562;28;20044;-80
2022/09/07 01:17:09;;;;;;;;;;;18.40;99.90;;;;;;5073123;28;20125;-80
2022/09/07 01:19:55;;;;;;;23.77;14.60;;;18.40;99.90;;;;;;5055732;28;20348;-80
2022/09/07 01:23:10;;;;;;;25.05;15.70;;;18.30;99.90;;;;;;5071795;28;20068;-80
2022/09/07 01:25:56;;;;;;;26.10;15.13;;;18.20;99.90;;;;;;5068209;28;20114;-79
2022/09/07 01:28:23;;;;;;;26.73;16.13;;;18.20;99.90;;;;;;5072117;28;20043;-79
2022/09/07 01:31:06;;;;;;;22.70;14.55;;;18.20;99.90;;;;;;5071710;28;20175;-80
2022/09/07 01:33:41;;;;;;;22.02;15.50;;;18.20;99.90;;;;;;5055574;28;20048;-80
2022/09/07 01:36:15;;;;;;;19.75;14.60;;;18.20;99.90;;;;;;5055555;28;20040;-80
2022/09/07 01:38:53;;;;;;;20.95;15.88;;;18.20;99.90;;;;;;5072073;28;20119;-80
2022/09/07 01:41:37;;;;;;;22.95;16.08;;;18.20;99.90;;;;;;5072136;28;20067;-79
2022/09/07 01:44:22;;;;;;;23.17;14.73;;;18.10;99.90;;;;;;5072423;28;20055;-79
2022/09/07 01:47:13;;;;;;;17.70;13.70;;;18.00;99.90;;;;;;5072375;28;20488;-80
2022/09/07 01:49:59;;;;;;;18.90;13.63;;;18.10;99.90;;;;;;5053260;28;20504;-79
2022/09/07 01:52:30;;;;;;;22.48;13.57;;;18.00;99.90;;;;;;5095838;28;20020;-79
2022/09/07 01:55:04;;;;;;;18.35;14.02;;;18.00;99.90;;;;;;5082043;28;20187;-79
2022/09/07 01:57:38;;;;;;;19.95;14.13;;;18.00;99.90;;;;;;5098547;28;20031;-80
2022/09/07 02:00:13;;;;;;;20.98;14.13;;;18.00;99.90;;;;;;5097691;28;20044;-79
2022/09/07 02:02:51;;;;;;;18.75;13.68;;;18.00;99.90;;;;;;5079002;28;20037;-79
2022/09/07 02:05:44;;;;;;;16.67;12.10;;;17.90;99.90;;;;;;5054618;28;20040;-79
2022/09/07 02:08:35;;;;;;;15.07;11.57;;;17.90;99.90;;;;;;5071280;28;20040;-79
2022/09/07 02:11:13;;;;;;;12.32;10.32;;;17.90;99.90;;;;;;5072104;28;20063;-79
2022/09/07 02:13:40;;;;;;;15.25;11.52;;;17.90;99.90;;;;;;5054252;28;20486;-79
2022/09/07 02:16:12;;;;;;;13.40;9.55;;;17.80;99.90;;;;;;5072520;28;20170;-79
2022/09/07 02:18:46;;;;;;;17.20;10.70;;;17.80;99.90;;;;;;5072400;28;20463;-79
2022/09/07 02:21:17;;;;;;;12.35;9.27;;;17.80;99.90;;;;;;5054201;28;20170;-79
2022/09/07 02:23:49;;;;;;;11.50;9.35;;;17.80;99.90;;;;;;5053932;28;20037;-79
2022/09/07 02:26:19;;;;;;;11.23;9.15;;;17.70;99.90;;;;;;5070985;28;20032;-79
2022/09/07 02:28:45;;;;;;;12.00;9.02;;;17.70;99.90;;;;;;5072235;28;20051;-79
2022/09/07 02:31:11;;;;;;;13.50;9.77;;;17.60;99.90;;;;;;5054259;28;20404;-79
2022/09/07 02:33:37;;;;;;;13.48;9.65;;;17.60;99.90;;;;;;5071125;28;20046;-78
2022/09/07 02:36:05;;;;;;;14.85;10.50;;;17.60;99.90;;;;;;5070997;28;20115;-78
2022/09/07 02:38:32;;;;;;;14.10;9.00;;;17.50;99.90;;;;;;5075238;28;20055;-78
2022/09/07 02:40:59;;;;;;;15.15;10.70;;;17.60;99.90;;;;;;5095277;28;20050;-78
2022/09/07 02:43:26;;;;;;;14.23;9.98;;;17.50;99.90;;;;;;5094892;28;20040;-79
2022/09/07 02:46:39;;;;;;;13.13;10.50;;;17.50;99.90;;;;;;5080228;28;20052;-79
2022/09/07 02:49:19;;;;;;;14.10;10.20;;;17.50;99.90;;;;;;5071007;28;20051;-79
2022/09/07 02:52:01;;;;;;;16.70;11.20;;;17.50;99.90;;;;;;5070229;28;20074;-79
2022/09/07 02:54:53;;;;;;;13.27;10.77;;;17.50;99.90;;;;;;5071595;28;20036;-79
2022/09/07 02:57:45;;;;;;;13.57;10.05;;;17.50;99.90;;;;;;5054488;28;20040;-79
2022/09/07 03:00:16;;;;;;;;;;;17.40;99.90;;;;;;5054757;28;20044;-79
2022/09/07 03:02:51;;;;;;;14.10;10.55;;;17.50;99.90;;;;;;5070407;28;20062;-79
2022/09/07 03:05:32;;;;;;;13.95;11.13;;;17.50;99.90;;;;;;5054174;28;20044;-79
2022/09/07 03:08:18;;;;;;;16.25;11.15;;;17.50;99.90;;;;;;5070951;28;20048;-79
2022/09/07 03:10:44;;;;;;;15.15;10.88;;;17.50;99.90;;;;;;5071215;28;20396;-79
2022/09/07 03:13:25;;;;;;;13.18;10.73;;;17.50;99.90;;;;;;5069848;28;20174;-79
2022/09/07 03:15:51;;;;;;;15.90;10.93;;;17.60;99.90;;;;;;5071135;28;20032;-79
2022/09/07 03:18:17;;;;;;;16.08;11.05;;;17.60;99.90;;;;;;5071136;28;20056;-79
2022/09/07 03:20:42;;;;;;;16.77;11.30;;;17.60;99.90;;;;;;5069893;28;20048;-82
2022/09/07 03:23:08;;;;;;;16.20;10.90;;;17.60;99.90;;;;;;5070958;28;20040;-82
2022/09/07 03:25:34;;;;;;;17.88;11.43;;;17.50;99.90;;;;;;5071566;28;20557;-82
2022/09/07 03:27:59;;;;;;;15.88;10.82;;;17.50;99.90;;;;;;5055026;28;20039;-82
2022/09/07 03:30:25;;;;;;;14.63;10.88;;;17.40;99.90;;;;;;5054683;28;20126;-82
2022/09/07 03:32:50;;;;;;;15.63;11.90;;;17.40;99.90;;;;;;5070587;28;20485;-82
2022/09/07 03:35:16;;;;;;;13.60;10.45;;;17.40;99.90;;;;;;5054014;28;20488;-82
2022/09/07 03:37:42;;;;;;;14.27;10.95;;;17.40;99.90;;;;;;5070413;28;20131;-82
2022/09/07 03:40:11;;;;;;;14.23;10.80;;;17.40;99.90;;;;;;5070471;28;20103;-82
2022/09/07 03:42:36;;;;;;;15.05;11.45;;;17.40;99.90;;;;;;5070281;28;20123;-82
2022/09/07 03:45:03;;;;;;;16.83;12.15;;;17.40;99.90;;;;;;5073588;28;20083;-82
2022/09/07 03:47:29;;;;;;;16.70;12.88;;;17.50;99.90;;;;;;5071900;28;20509;-80
2022/09/07 03:49:54;;;;;;;18.98;13.05;;;17.50;99.90;;;;;;5071407;28;20056;-80
2022/09/07 03:52:20;;;;;;;19.13;12.57;;;17.40;99.90;;;;;;5071696;28;20036;-80
2022/09/07 03:54:45;;;;;;;17.20;12.82;;;17.40;99.90;;;;;;5071675;28;20044;-79
2022/09/07 03:57:12;;;;;;;18.58;13.70;;;17.40;99.90;;;;;;5072055;28;20040;-81
2022/09/07 03:59:37;;;;;;;27.55;14.57;;;17.40;99.90;;;;;;5071074;28;20068;-79
2022/09/07 04:02:03;;;;;;;18.48;13.45;;;17.40;99.90;;;;;;5071326;28;20440;-81
2022/09/07 04:04:29;;;;;;;21.48;15.05;;;17.30;99.90;;;;;;5074350;28;20045;-80
2022/09/07 04:06:54;;;;;;;23.10;15.75;;;17.40;99.90;;;;;;5074260;28;20393;-80
2022/09/07 04:09:20;;;;;;;21.15;15.85;;;17.40;99.90;;;;;;5075399;28;20432;-80
2022/09/07 04:11:46;;;;;;;31.20;16.63;;;17.40;99.90;;;;;;5058063;28;20385;-81
2022/09/07 04:14:11;;;;;;;25.25;16.50;;;17.40;99.90;;;;;;5057498;28;20128;-81
2022/09/07 04:16:37;;;;;;;23.60;15.93;;;17.40;99.90;;;;;;5057761;28;20505;-80
2022/09/07 04:19:03;;;;;;;26.52;15.80;;;17.30;99.90;;;;;;5074285;28;20422;-80
2022/09/07 04:21:31;;;;;;;27.55;17.17;;;17.30;99.90;;;;;;5073596;28;20549;-81
2022/09/07 04:23:57;;;;;;;23.42;16.52;;;17.30;99.90;;;;;;5056930;28;20051;-81
2022/09/07 04:26:25;;;;;;;30.73;18.60;;;17.30;99.90;;;;;;5073653;28;20044;-81
2022/09/07 04:28:51;;;;;;;22.50;16.45;;;17.30;99.90;;;;;;5073918;28;20166;-81
2022/09/07 04:31:18;;;;;;;23.13;17.75;;;17.30;99.90;;;;;;5073235;28;20049;-81
2022/09/07 04:33:45;;;;;;;24.65;17.60;;;17.20;99.90;;;;;;5073330;28;20044;-81
2022/09/07 04:36:12;;;;;;;26.42;18.80;;;17.20;99.90;;;;;;5073436;28;20048;-80
2022/09/07 04:38:38;;;;;;;22.40;17.77;;;17.30;99.90;;;;;;5073414;28;20197;-81
2022/09/07 04:41:16;;;;;;;31.70;19.70;;;17.20;99.90;;;;;;5072708;28;20041;-80
2022/09/07 04:43:42;;;;;;;24.13;17.45;;;17.20;99.90;;;;;;5072875;28;20513;-80
2022/09/07 04:46:32;;;;;;;31.60;20.02;;;17.30;99.90;;;;;;5072588;28;20075;-81
2022/09/07 04:49:04;;;;;;;24.23;18.98;;;17.30;99.90;;;;;;5072818;28;20041;-80
2022/09/07 04:51:31;;;;;;;24.70;18.23;;;17.20;99.90;;;;;;5072269;28;20059;-80
2022/09/07 04:53:58;;;;;;;27.80;19.73;;;17.20;99.90;;;;;;5072716;28;20779;-80
2022/09/07 04:56:24;;;;;;;27.58;19.98;;;17.20;99.90;;;;;;5072940;28;20052;-80
2022/09/07 04:58:50;;;;;;;25.58;19.77;;;17.20;99.90;;;;;;5072574;28;20048;-80
2022/09/07 05:01:18;;;;;;;29.92;20.00;;;17.20;99.90;;;;;;5072340;28;20044;-80
2022/09/07 05:03:45;;;;;;;34.17;21.25;;;17.10;99.90;;;;;;5072542;28;20053;-80
2022/09/07 05:06:11;;;;;;;36.33;22.70;;;17.10;99.90;;;;;;5072204;28;20055;-81
2022/09/07 05:08:38;;;;;;;26.05;20.13;;;17.10;99.90;;;;;;5072685;28;20037;-81
2022/09/07 05:11:04;;;;;;;36.80;22.83;;;17.10;99.90;;;;;;5055806;28;20048;-80
2022/09/07 05:13:30;;;;;;;31.35;21.60;;;17.10;99.90;;;;;;5072596;28;20040;-80
2022/09/07 05:15:57;;;;;;;30.67;21.55;;;17.10;99.90;;;;;;5072612;28;20044;-80
2022/09/07 05:18:23;;;;;;;27.92;21.77;;;17.10;99.90;;;;;;5092637;28;20105;-81
2022/09/07 05:20:49;;;;;;;34.55;23.98;;;17.20;99.90;;;;;;5098908;28;20032;-79
2022/09/07 05:23:15;;;;;;;30.52;22.45;;;17.20;99.90;;;;;;5097557;28;20269;-82
2022/09/07 05:25:45;;;;;;;36.28;25.05;;;17.30;99.90;;;;;;5075083;28;20041;-80
2022/09/07 05:28:11;;;;;;;31.42;22.27;;;17.30;99.90;;;;;;5056255;28;20813;-80
2022/09/07 05:30:37;;;;;;;32.42;22.50;;;17.30;99.90;;;;;;5072560;28;21736;-80
2022/09/07 05:33:04;;;;;;;30.98;22.88;;;17.40;99.90;;;;;;5073570;28;20124;-80
2022/09/07 05:35:30;;;;;;;33.78;22.60;;;17.40;99.90;;;;;;5072879;28;20094;-81
2022/09/07 05:37:55;;;;;;;31.77;23.20;;;17.50;99.90;;;;;;5055354;28;20053;-81
2022/09/07 05:40:21;;;;;;;39.10;24.63;;;17.50;99.90;;;;;;5072196;28;20044;-80
2022/09/07 05:42:47;;;;;;;32.67;23.48;;;17.50;99.90;;;;;;5072811;28;20035;-80
2022/09/07 05:45:13;;;;;;;29.88;22.67;;;17.60;99.90;;;;;;5071558;28;20040;-80
2022/09/07 05:47:39;;;;;;;31.55;21.90;;;17.60;99.90;;;;;;5071767;28;20044;-80
2022/09/07 05:50:06;;;;;;;31.83;22.42;;;17.70;99.90;;;;;;5071875;28;20095;-80
2022/09/07 05:52:31;;;;;;;33.58;23.75;;;17.70;99.90;;;;;;5071371;28;20045;-80
2022/09/07 05:54:57;;;;;;;35.58;23.80;;;17.70;99.90;;;;;;5071476;28;20048;-81
2022/09/07 05:57:23;;;;;;;30.60;22.15;;;17.70;99.90;;;;;;5072312;28;20419;-82
2022/09/07 05:59:48;;;;;;;33.10;22.17;;;17.70;99.90;;;;;;5057666;28;20095;-81
2022/09/07 06:02:14;;;;;;;33.70;22.42;;;17.70;99.90;;;;;;5073557;28;20044;-81
2022/09/07 06:04:40;;;;;;;29.92;22.88;;;17.80;99.90;;;;;;5076037;28;20036;-82
2022/09/07 06:07:07;;;;;;;34.05;22.70;;;17.80;99.90;;;;;;5073143;28;20457;-82
2022/09/07 06:09:32;;;;;;;31.45;22.08;;;17.80;99.90;;;;;;5055022;28;20044;-82
2022/09/07 06:11:58;;;;;;;32.70;22.63;;;17.80;99.90;;;;;;5071299;28;20044;-82
2022/09/07 06:14:24;;;;;;;33.00;22.90;;;17.80;99.90;;;;;;5071739;28;20571;-81
2022/09/07 06:16:49;;;;;;;35.33;22.35;;;17.90;99.90;;;;;;5055186;28;20117;-81
2022/09/07 06:19:15;;;;;;;33.35;23.17;;;17.90;99.90;;;;;;5071370;28;20044;-82
2022/09/07 06:21:40;;;;;;;31.27;22.25;;;17.90;99.90;;;;;;5070829;28;20116;-81
2022/09/07 06:24:06;;;;;;;40.20;22.85;;;17.90;99.90;;;;;;5071382;28;20066;-82
2022/09/07 06:26:32;;;;;;;33.35;22.00;;;17.90;99.90;;;;;;5070353;28;20079;-82
2022/09/07 06:28:58;;;;;;;33.58;23.23;;;18.00;99.90;;;;;;5071014;28;20045;-82
2022/09/07 06:31:24;;;;;;;31.40;21.33;;;18.00;99.90;;;;;;5070377;28;20364;-82
2022/09/07 06:33:50;;;;;;;30.50;20.70;;;18.10;99.90;;;;;;5072304;28;20093;-81
2022/09/07 06:36:18;;;;;;;45.65;28.45;;;18.10;99.90;;;;;;5072569;28;20418;-81
2022/09/07 06:38:44;;;;;;;29.23;19.85;;;18.10;99.90;;;;;;5055525;28;20047;-81
2022/09/07 06:41:19;;;;;;;29.52;19.23;;;18.20;99.90;;;;;;5054754;28;20041;-81
2022/09/07 06:43:44;;;;;;;29.42;19.75;;;18.20;99.90;;;;;;5054673;28;20052;-81
2022/09/07 06:46:10;;;;;;;29.38;19.13;;;18.20;99.90;;;;;;5054660;28;20044;-81
2022/09/07 06:48:36;;;;;;;31.88;20.15;;;18.20;99.90;;;;;;5054597;28;20040;-81
2022/09/07 06:51:08;;;;;;;34.88;21.00;;;18.20;99.90;;;;;;5071170;28;20044;-81
2022/09/07 06:53:35;;;;;;;;;;;18.20;99.90;;;;;;5071316;28;20131;-82
2022/09/07 06:56:04;;;;;;;27.95;19.08;;;18.20;99.90;;;;;;5071354;28;20344;-81
2022/09/07 06:58:29;;;;;;;31.08;20.05;;;18.20;99.90;;;;;;5070722;28;20063;-81
2022/09/07 07:00:55;;;;;;;25.63;18.23;;;18.30;99.90;;;;;;5070883;28;20044;-81
2022/09/07 07:03:21;;;;;;;25.05;16.42;;;18.20;99.90;;;;;;5074372;28;20082;-79
2022/09/07 07:05:51;;;;;;;27.52;17.67;;;18.20;99.90;;;;;;5074928;28;20048;-80
2022/09/07 07:08:17;;;;;;;27.60;16.73;;;18.20;99.90;;;;;;5074180;28;20391;-80
2022/09/07 07:10:42;;;;;;;27.17;17.10;;;18.20;99.90;;;;;;5073554;28;20107;-80
2022/09/07 07:13:08;;;;;;;27.20;17.27;;;18.10;99.90;;;;;;5072820;28;20036;-81
2022/09/07 07:15:33;;;;;;;23.00;16.08;;;18.20;99.90;;;;;;5054854;28;20976;-80
2022/09/07 07:17:59;;;;;;;21.38;15.27;;;18.10;99.90;;;;;;5072836;28;20041;-81
2022/09/07 07:20:25;;;;;;;21.73;14.98;;;18.20;99.90;;;;;;5071787;28;20041;-81
2022/09/07 07:22:51;;;;;;;25.45;16.23;;;18.10;99.90;;;;;;5053795;28;20404;-81
2022/09/07 07:25:17;;;;;;;31.00;16.60;;;18.10;99.90;;;;;;5054953;28;20469;-80
2022/09/07 07:27:47;;;;;;;26.88;16.88;;;18.10;99.90;;;;;;5054974;28;20401;-81
2022/09/07 07:30:16;;;;;;;26.30;17.05;;;18.00;99.90;;;;;;5071730;28;20177;-80
2022/09/07 07:32:42;;;;;;;24.90;16.60;;;18.10;99.90;;;;;;5066704;28;20044;-81
2022/09/07 07:35:09;;;;;;;27.35;16.75;;;18.20;99.90;;;;;;5068085;28;20045;-81
2022/09/07 07:37:36;;;;;;;24.30;16.13;;;18.20;99.90;;;;;;5067361;28;20446;-81
2022/09/07 07:40:07;;;;;;;28.85;17.15;;;18.20;99.90;;;;;;5058245;28;20048;-81
2022/09/07 07:42:34;;;;;;;25.88;17.02;;;18.20;99.90;;;;;;5057475;28;20045;-80
2022/09/07 07:45:03;;;;;;;24.67;16.60;;;18.30;99.90;;;;;;5056362;28;20048;-81
2022/09/07 07:47:29;;;;;;;23.75;16.90;;;18.30;99.90;;;;;;5056385;28;20524;-80
2022/09/07 07:49:55;;;;;;;24.85;16.05;;;18.30;99.90;;;;;;5056122;28;20041;-81
2022/09/07 07:52:20;;;;;;;23.65;15.02;;;18.40;99.90;;;;;;5055646;28;20096;-80
2022/09/07 07:54:47;;;;;;;26.02;16.15;;;18.50;99.90;;;;;;5055745;28;20037;-81
2022/09/07 07:57:13;;;;;;;22.13;14.32;;;18.60;99.90;;;;;;5056233;28;20040;-81
2022/09/07 07:59:38;;;;;;;22.23;13.88;;;18.70;99.90;;;;;;5055427;28;20124;-80
2022/09/07 08:02:07;;;;;;;24.27;14.60;;;18.70;99.90;;;;;;5037815;28;20041;-80
2022/09/07 08:04:33;;;;;;;20.73;14.13;;;18.80;99.90;;;;;;5055081;28;20045;-79
2022/09/07 08:07:00;;;;;;;21.23;14.15;;;18.80;99.90;;;;;;5055101;28;20044;-80
2022/09/07 08:09:25;;;;;;;23.05;14.50;;;18.90;99.90;;;;;;5055019;28;20127;-80
2022/09/07 08:11:51;;;;;;;19.95;13.38;;;19.00;99.90;;;;;;5054671;28;20168;-80
2022/09/07 08:14:17;;;;;;;21.38;14.05;;;19.00;99.90;;;;;;5055449;28;20120;-80
2022/09/07 08:16:44;;;;;;;24.25;14.05;;;19.10;99.90;;;;;;5055936;28;20102;-79
2022/09/07 08:19:12;;;;;;;18.70;13.63;;;19.20;99.90;;;;;;5056540;28;20037;-80
2022/09/07 08:21:38;;;;;;;19.50;13.15;;;19.20;99.90;;;;;;5054731;28;20047;-80
2022/09/07 08:24:03;;;;;;;20.88;12.35;;;19.30;99.90;;;;;;5055494;28;20033;-79
2022/09/07 08:26:29;;;;;;;19.00;12.18;;;19.40;99.90;;;;;;5054065;28;20139;-78
2022/09/07 08:28:55;;;;;;;17.83;12.70;;;19.60;99.90;;;;;;5053453;28;20409;-78
2022/09/07 08:31:21;;;;;;;18.23;11.85;;;19.70;99.90;;;;;;5052645;28;20102;-78
2022/09/07 08:33:47;;;;;;;16.80;12.00;;;19.70;99.90;;;;;;5053277;28;20416;-79
2022/09/07 08:36:18;;;;;;;16.83;12.10;;;19.90;99.90;;;;;;5054476;28;20123;-79
2022/09/07 08:38:44;;;;;;;17.77;12.43;;;20.20;99.90;;;;;;5052963;28;20049;-78
2022/09/07 08:41:22;;;;;;;17.75;12.90;;;20.30;99.90;;;;;;5052757;28;20182;-79
2022/09/07 08:43:59;;;;;;;15.77;12.52;;;20.40;99.90;;;;;;5036318;28;20080;-78
2022/09/07 08:46:28;;;;;;;16.67;11.52;;;20.50;99.90;;;;;;5036307;28;20033;-79
2022/09/07 08:48:57;;;;;;;18.02;11.60;;;20.40;99.90;;;;;;5035422;28;20045;-78
2022/09/07 08:51:45;;;;;;;13.68;10.88;;;20.40;99.90;;;;;;5035459;28;20033;-78
2022/09/07 08:54:13;;;;;;;14.10;10.70;;;20.50;99.90;;;;;;5047066;28;20052;-79
2022/09/07 08:56:46;;;;;;;17.30;11.38;;;20.60;99.90;;;;;;5057238;28;20968;-78
2022/09/07 08:59:25;;;;;;;14.05;11.00;;;20.60;99.90;;;;;;5064027;28;20041;-78
2022/09/07 09:01:51;;;;;;;15.98;10.75;;;20.60;99.90;;;;;;5052350;28;20041;-78
2022/09/07 09:04:28;;;;;;;14.75;11.68;;;20.50;99.90;;;;;;5067858;28;20048;-79
2022/09/07 09:06:56;;;;;;;16.20;10.95;;;20.50;99.90;;;;;;5055525;28;20120;-78
2022/09/07 09:09:28;;;;;;;13.38;10.63;;;20.50;99.90;;;;;;5072720;28;20040;-78
2022/09/07 09:12:12;;;;;;;17.98;11.32;;;20.60;99.90;;;;;;5064461;28;20035;-78
2022/09/07 09:14:54;;;;;;;16.45;11.25;;;20.60;99.90;;;;;;5080006;28;20037;-80
2022/09/07 09:17:36;;;;;;;14.45;9.80;;;20.60;99.90;;;;;;5091342;28;20047;-78
2022/09/07 09:20:02;;;;;;;13.02;9.38;;;20.60;99.90;;;;;;5097328;28;20033;-82
2022/09/07 09:22:28;;;;;;;16.58;11.02;;;20.70;99.90;;;;;;5076022;28;20162;-81
2022/09/07 09:25:01;;;;;;;14.02;10.80;;;20.80;99.90;;;;;;5062453;28;20045;-80
2022/09/07 09:27:27;;;;;;;13.60;10.45;;;20.90;99.90;;;;;;5064180;28;20029;-79
2022/09/07 09:29:53;;;;;;;14.38;9.70;;;20.90;99.90;;;;;;5070562;28;20435;-78
2022/09/07 09:32:40;;;;;;;12.40;9.63;;;21.00;99.90;;;;;;5065514;28;20041;-80
2022/09/07 09:35:31;;;;;;;21.38;9.93;;;20.90;99.90;;;;;;5064094;28;20116;-79
2022/09/07 09:37:57;;;;;;;14.20;9.73;;;20.80;99.90;;;;;;5071867;28;20118;-80
2022/09/07 09:40:33;;;;;;;11.27;8.82;;;20.80;99.90;;;;;;5072095;28;20500;-79
2022/09/07 09:43:05;;;;;;;10.80;8.45;;;20.90;99.90;;;;;;5071567;28;20126;-79
2022/09/07 09:45:41;;;;;;;10.48;9.30;;;21.00;99.90;;;;;;5072286;28;20040;-80
2022/09/07 09:48:18;;;;;;;13.02;9.40;;;21.00;99.90;;;;;;5071698;28;20102;-81
2022/09/07 09:50:48;;;;;;;10.35;8.20;;;21.00;99.90;;;;;;5071922;28;20111;-79
2022/09/07 09:53:34;;;;;;;12.80;9.50;;;21.00;99.90;;;;;;5073359;28;20488;-79
2022/09/07 09:56:02;;;;;;;12.05;8.57;;;21.00;99.90;;;;;;5093783;28;20041;-78
2022/09/07 09:58:31;;;;;;;10.10;7.85;;;21.00;99.90;;;;;;5094883;28;20033;-81
2022/09/07 10:01:03;;;;;;;9.73;7.50;;;21.20;99.90;;;;;;5096583;28;20045;-80
2022/09/07 10:03:31;;;;;;;11.65;7.00;;;21.20;99.90;;;;;;5072315;28;20041;-79
2022/09/07 10:05:58;;;;;;;10.65;7.15;;;21.30;99.90;;;;;;5073110;28;20094;-80
2022/09/07 10:08:27;;;;;;;9.65;6.22;;;21.40;99.90;;;;;;5076691;28;20052;-80
2022/09/07 10:11:03;;;;;;;9.30;7.18;;;21.50;99.90;;;;;;5072547;28;20080;-81
2022/09/07 10:13:42;;;;;;;12.45;7.95;;;21.60;99.90;;;;;;5076680;28;20052;-80
2022/09/07 10:16:10;;;;;;;10.07;6.68;;;21.60;99.90;;;;;;5079888;28;20043;-80
2022/09/07 10:18:53;;;;;;;8.43;5.47;;;21.70;99.90;;;;;;5063154;28;20096;-80
2022/09/07 10:21:30;;;;;;;9.75;5.03;;;21.80;99.90;;;;;;5076353;28;20051;-79
2022/09/07 10:24:13;;;;;;;6.18;5.03;;;21.90;99.90;;;;;;5078388;28;20045;-79
2022/09/07 10:26:43;;;;;;;8.77;5.80;;;22.00;99.90;;;;;;5060166;28;20036;-80
2022/09/07 10:29:21;;;;;;;7.63;5.35;;;22.00;99.90;;;;;;5058340;28;20066;-80
2022/09/07 10:31:59;;;;;;;6.20;5.10;;;22.00;99.90;;;;;;5072781;28;20076;-80
2022/09/07 10:34:30;;;;;;;7.80;5.57;;;22.00;99.90;;;;;;5061404;28;20396;-79
2022/09/07 10:37:03;;;;;;;6.30;5.30;;;22.10;99.90;;;;;;5061507;28;20049;-79
2022/09/07 10:39:51;;;;;;;7.32;4.90;;;22.10;99.90;;;;;;5072203;28;20050;-80
2022/09/07 10:42:28;;;;;;;7.00;5.53;;;22.20;99.90;;;;;;5072468;28;20051;-80
2022/09/07 10:45:15;;;;;;;7.40;5.38;;;22.40;99.90;;;;;;5057895;28;20411;-79
2022/09/07 10:47:43;;;;;;;7.53;5.57;;;22.40;99.90;;;;;;5056535;28;20119;-80
2022/09/07 10:50:23;;;;;;;9.02;5.65;;;22.50;99.90;;;;;;5072677;28;20098;-80
2022/09/07 10:53:07;;;;;;;6.85;5.43;;;22.60;99.90;;;;;;5072453;28;20048;-79
2022/09/07 10:55:38;;;;;;;5.78;5.15;;;22.60;99.90;;;;;;5055605;28;20048;-80
2022/09/07 10:58:16;;;;;;;6.40;5.03;;;22.60;99.90;;;;;;5055282;28;20648;-80
2022/09/07 11:01:20;;;;;;;6.43;4.20;;;22.60;99.90;;;;;;5071712;28;20079;-81
2022/09/07 11:04:04;;;;;;;6.32;4.47;;;22.50;99.90;;;;;;5055079;28;20401;-80
2022/09/07 11:06:40;;;;;;;5.93;4.47;;;22.50;99.90;;;;;;5072860;28;20045;-80
2022/09/07 11:09:15;;;;;;;6.85;4.72;;;22.50;99.90;;;;;;5085844;28;20048;-80
2022/09/07 11:12:04;;;;;;;5.50;4.65;;;22.50;99.90;;;;;;5095345;28;20049;-78
2022/09/07 11:14:35;;;;;;;4.03;3.60;;;22.40;99.90;;;;;;5096215;28;20095;-79
2022/09/07 11:17:04;;;;;;;;;;;22.40;99.90;;;;;;5079044;28;20052;-79
2022/09/07 11:19:35;;;;;;;6.82;3.97;;;22.40;99.90;;;;;;5094438;28;19908;-78
2022/09/07 11:22:13;;;;;;;8.05;5.00;;;22.40;99.90;;;;;;5063422;28;20452;-79
2022/09/07 11:24:51;;;;;;;6.88;3.97;;;22.40;99.90;;;;;;5071372;28;20044;-80
2022/09/07 11:27:40;;;;;;;6.70;4.07;;;22.50;99.90;;;;;;5070286;28;20076;-80
2022/09/07 11:30:22;;;;;;;7.13;4.22;;;22.60;99.90;;;;;;5055104;28;20075;-80
2022/09/07 11:33:18;;;;;;;6.72;4.90;;;22.80;99.90;;;;;;5052764;28;20055;-80
2022/09/07 11:35:53;;;;;;;8.05;4.90;;;22.80;99.90;;;;;;5070003;28;20137;-81
2022/09/07 11:38:27;;;;;;;4.88;4.28;;;22.80;99.90;;;;;;5070950;28;20415;-79
2022/09/07 11:41:17;;;;;;;8.63;4.60;;;22.90;99.90;;;;;;5070419;28;20127;-80
2022/09/07 11:43:47;;;;;;;5.18;3.95;;;22.90;99.90;;;;;;5070256;28;20539;-80
2022/09/07 11:46:31;;;;;;;12.63;4.38;;;22.90;99.90;;;;;;5069969;28;20036;-79
2022/09/07 11:48:57;;;;;;;4.40;3.72;;;22.80;99.90;;;;;;5053318;28;20441;-80
2022/09/07 11:51:39;;;;;;;5.90;4.20;;;22.70;99.90;;;;;;5069960;28;20133;-80
2022/09/07 11:54:27;;;;;;;7.72;4.15;;;22.70;99.90;;;;;;5055279;28;20500;-80
2022/09/07 11:57:19;;;;;;;6.25;4.20;;;22.90;99.90;;;;;;5070144;28;20076;-80
2022/09/07 12:00:20;;;;;;;6.47;3.88;;;23.20;99.90;;;;;;5070705;28;20044;-79
2022/09/07 12:02:48;;;;;;;6.32;4.03;;;23.60;99.90;;;;;;5070128;28;20048;-79
2022/09/07 12:05:51;;;;;;;4.95;4.45;;;23.90;99.90;;;;;;5070145;28;20044;-80
2022/09/07 12:08:39;;;;;;;4.65;3.88;;;23.90;99.90;;;;;;5052827;28;20412;-79
2022/09/07 12:11:17;;;;;;;6.53;3.30;;;24.00;99.90;;;;;;5071028;28;20539;-80
2022/09/07 12:14:07;;;;;;;4.18;3.15;;;24.20;99.90;;;;;;5069830;28;20072;-79
2022/09/07 12:16:55;;;;;;;4.88;3.40;;;24.30;99.90;;;;;;5069821;28;20040;-79
2022/09/07 12:19:23;;;;;;;3.13;2.78;;;24.10;99.90;;;;;;5070214;28;20093;-79
2022/09/07 12:21:52;;;;;;;5.05;2.97;;;24.00;99.90;;;;;;5052845;28;20071;-79
2022/09/07 12:24:44;;;;;;;4.43;3.38;;;24.00;99.90;;;;;;5070864;28;20776;-80
2022/09/07 12:27:18;;;;;;;3.25;2.53;;;23.80;99.90;;;;;;5074123;28;20473;-80
2022/09/07 12:29:51;;;;;;;6.72;3.83;;;23.70;99.90;;;;;;5056982;28;20040;-79
2022/09/07 12:32:48;;;;;;;3.08;2.58;;;23.80;99.90;;;;;;5065141;28;20094;-79
2022/09/07 12:35:32;;;;;;;3.17;2.42;;;24.10;99.90;;;;;;5066075;28;20048;-79
2022/09/07 12:38:05;;;;;;;5.68;2.72;;;24.20;99.90;;;;;;5055719;28;20044;-80
2022/09/07 12:40:32;;;;;;;4.13;2.40;;;24.50;99.90;;;;;;5056810;28;20041;-79
2022/09/07 12:43:12;;;;;;;3.58;2.20;;;24.80;99.90;;;;;;5072777;28;20528;-79
2022/09/07 12:45:38;;;;;;;6.35;2.22;;;25.10;99.90;;;;;;5073034;28;20044;-80
2022/09/07 12:48:15;;;;;;;3.03;2.20;;;25.10;99.90;;;;;;5073098;28;20101;-79
2022/09/07 12:51:14;;;;;;;1.67;1.48;;;25.30;99.90;;;;;;5073475;28;20044;-80
2022/09/07 12:53:55;;;;;;;2.35;1.92;;;25.40;99.90;;;;;;5045233;28;20520;-80
2022/09/07 12:56:56;;;;;;;3.53;2.05;;;25.60;99.90;;;;;;5073541;28;20446;-80
2022/09/07 12:59:36;;;;;;;3.13;1.88;;;25.80;99.90;;;;;;5073838;28;20044;-79